createdAt,value
2023-05-10T00:01:53.952Z,4.32
2023-05-10T00:04:23.385Z,5.50
2023-05-10T00:06:51.386Z,4.65
2023-05-10T00:09:20.480Z,5.88
2023-05-10T00:11:48.419Z,5.05
2023-05-10T00:14:16.910Z,4.30
2023-05-10T00:16:44.839Z,5.55
2023-05-10T00:19:13.248Z,3.53
2023-05-10T00:21:41.181Z,4.10
2023-05-10T00:24:09.653Z,4.30
2023-05-10T00:26:37.827Z,5.93
2023-05-10T00:29:06.274Z,6.57
2023-05-10T00:31:34.140Z,4.22
2023-05-10T00:34:02.776Z,4.22
2023-05-10T00:36:32.530Z,5.00
2023-05-10T00:39:01.194Z,4.32
2023-05-10T00:41:29.372Z,3.17
2023-05-10T00:43:58.941Z,8.20
2023-05-10T00:46:27.374Z,8.50
2023-05-10T00:48:55.911Z,4.80
2023-05-10T00:51:25.348Z,3.47
2023-05-10T00:53:53.784Z,3.75
2023-05-10T00:56:24.330Z,4.13
2023-05-10T00:58:53.026Z,5.15
2023-05-10T01:01:23.822Z,5.07
2023-05-10T01:03:53.959Z,3.58
2023-05-10T01:06:22.126Z,3.63
2023-05-10T01:08:50.653Z,4.65
2023-05-10T01:11:20.245Z,6.45
2023-05-10T01:13:56.379Z,6.05
2023-05-10T01:16:26.757Z,4.90
2023-05-10T01:18:55.216Z,4.38
2023-05-10T01:21:34.862Z,4.50
2023-05-10T01:24:15.071Z,3.95
2023-05-10T01:26:58.853Z,5.15
2023-05-10T01:29:46.875Z,3.70
2023-05-10T01:32:26.710Z,6.82
2023-05-10T01:35:01.135Z,4.50
2023-05-10T01:37:41.597Z,4.45
2023-05-10T01:40:20.012Z,4.13
2023-05-10T01:42:54.753Z,4.93
2023-05-10T01:45:32.170Z,3.72
2023-05-10T01:48:12.698Z,4.40
2023-05-10T01:50:45.021Z,5.10
2023-05-10T01:53:19.184Z,5.70
2023-05-10T01:55:55.303Z,7.82
2023-05-10T01:58:35.189Z,5.80
2023-05-10T02:01:06.238Z,5.95
2023-05-10T02:03:37.956Z,4.90
2023-05-10T02:06:08.396Z,5.68
2023-05-10T02:08:38.588Z,4.88
2023-05-10T02:11:09.423Z,3.40
2023-05-10T02:13:40.697Z,5.72
2023-05-10T02:16:09.729Z,3.90
2023-05-10T02:18:38.089Z,3.28
2023-05-10T02:21:11.967Z,5.07
2023-05-10T02:23:41.889Z,3.63
2023-05-10T02:26:11.844Z,4.90
2023-05-10T02:28:41.740Z,7.50
2023-05-10T02:31:11.847Z,4.40
2023-05-10T02:33:45.761Z,6.50
2023-05-10T02:36:15.343Z,5.03
2023-05-10T02:38:44.730Z,4.53
2023-05-10T02:41:14.478Z,3.97
2023-05-10T02:43:44.301Z,7.13
2023-05-10T02:46:12.998Z,5.45
2023-05-10T02:48:41.429Z,5.38
2023-05-10T02:51:11.920Z,7.30
2023-05-10T02:53:44.180Z,4.15
2023-05-10T02:56:35.755Z,4.53
2023-05-10T02:59:03.722Z,4.97
2023-05-10T03:01:32.224Z,4.20
2023-05-10T03:04:00.077Z,4.25
2023-05-10T03:06:29.933Z,5.82
2023-05-10T03:08:58.780Z,5.15
2023-05-10T03:11:46.727Z,4.82
2023-05-10T03:14:36.090Z,6.00
2023-05-10T03:17:17.183Z,6.20
2023-05-10T03:20:13.105Z,4.07
2023-05-10T03:22:54.613Z,4.45
2023-05-10T03:25:24.291Z,6.03
2023-05-10T03:27:55.859Z,4.55
2023-05-10T03:30:25.756Z,3.80
2023-05-10T03:32:54.251Z,4.25
2023-05-10T03:35:22.311Z,4.55
2023-05-10T03:37:51.354Z,4.25
2023-05-10T03:40:19.474Z,3.08
2023-05-10T03:42:48.583Z,3.83
2023-05-10T03:45:16.648Z,5.55
2023-05-10T03:47:46.054Z,5.13
2023-05-10T03:50:14.413Z,7.22
2023-05-10T03:52:43.537Z,4.68
2023-05-10T03:55:12.228Z,10.18
2023-05-10T03:57:40.748Z,6.38
2023-05-10T04:00:09.994Z,8.27
2023-05-10T04:02:45.400Z,6.90
2023-05-10T04:05:19.044Z,6.70
2023-05-10T04:07:48.418Z,5.35
2023-05-10T04:10:17.682Z,5.68
2023-05-10T04:12:48.055Z,7.53
2023-05-10T04:15:16.211Z,4.65
2023-05-10T04:17:47.064Z,6.80
2023-05-10T04:20:16.021Z,4.40
2023-05-10T04:22:45.336Z,9.75
2023-05-10T04:25:13.262Z,6.07
2023-05-10T04:27:41.710Z,6.40
2023-05-10T04:30:11.290Z,4.88
2023-05-10T04:32:39.583Z,4.85
2023-05-10T04:35:07.742Z,4.55
2023-05-10T04:37:36.425Z,3.22
2023-05-10T04:40:06.191Z,4.72
2023-05-10T04:42:34.431Z,5.25
2023-05-10T04:45:02.511Z,3.10
2023-05-10T04:47:32.457Z,11.63
2023-05-10T04:50:02.931Z,4.97
2023-05-10T04:52:32.562Z,3.88
2023-05-10T04:55:00.494Z,4.97
2023-05-10T04:57:28.994Z,4.82
2023-05-10T04:59:56.839Z,5.95
2023-05-10T05:02:25.546Z,6.28
2023-05-10T05:04:53.763Z,6.22
2023-05-10T05:07:23.661Z,7.60
2023-05-10T05:09:52.031Z,7.35
2023-05-10T05:12:20.762Z,5.28
2023-05-10T05:14:48.729Z,6.78
2023-05-10T05:17:16.965Z,5.60
2023-05-10T05:19:45.061Z,6.60
2023-05-10T05:22:13.366Z,5.30
2023-05-10T05:24:41.222Z,6.07
2023-05-10T05:27:09.696Z,6.32
2023-05-10T05:29:37.642Z,5.75
2023-05-10T05:32:07.234Z,6.25
2023-05-10T05:34:35.623Z,8.55
2023-05-10T05:37:03.948Z,5.55
2023-05-10T05:39:32.226Z,8.23
2023-05-10T05:42:00.828Z,7.68
2023-05-10T05:44:30.042Z,4.75
2023-05-10T05:46:58.551Z,6.15
2023-05-10T05:49:26.538Z,3.88
2023-05-10T05:51:54.841Z,5.32
2023-05-10T05:54:22.802Z,8.25
2023-05-10T05:56:51.027Z,4.07
2023-05-10T05:59:18.795Z,4.38
2023-05-10T06:01:47.165Z,4.57
2023-05-10T06:04:15.095Z,5.00
2023-05-10T06:06:43.609Z,7.85
2023-05-10T06:09:11.883Z,5.90
2023-05-10T06:11:40.310Z,4.43
2023-05-10T06:14:09.111Z,6.78
2023-05-10T06:16:37.491Z,6.53
2023-05-10T06:19:05.572Z,4.75
2023-05-10T06:21:33.942Z,6.85
2023-05-10T06:24:01.870Z,4.82
2023-05-10T06:26:30.267Z,6.93
2023-05-10T06:28:58.280Z,7.88
2023-05-10T06:31:26.551Z,7.28
2023-05-10T06:33:56.657Z,5.10
2023-05-10T06:36:27.580Z,5.85
2023-05-10T06:38:56.406Z,5.20
2023-05-10T06:41:25.175Z,3.70
2023-05-10T06:43:53.096Z,7.47
2023-05-10T06:46:21.555Z,10.23
2023-05-10T06:48:49.556Z,8.50
2023-05-10T06:51:17.786Z,5.22
2023-05-10T06:53:45.739Z,7.32
2023-05-10T06:56:13.994Z,5.65
2023-05-10T06:58:42.645Z,4.82
2023-05-10T07:01:11.524Z,5.53
2023-05-10T07:03:39.490Z,8.43
2023-05-10T07:06:15.634Z,7.60
2023-05-10T07:08:50.192Z,4.15
2023-05-10T07:11:18.601Z,5.35
2023-05-10T07:13:48.487Z,4.65
2023-05-10T07:16:17.352Z,7.03
2023-05-10T07:18:45.279Z,6.80
2023-05-10T07:21:13.576Z,5.22
2023-05-10T07:23:42.948Z,5.47
2023-05-10T07:26:13.855Z,8.43
2023-05-10T07:28:41.950Z,7.70
2023-05-10T07:31:10.513Z,6.07
2023-05-10T07:33:39.694Z,6.65
2023-05-10T07:36:08.474Z,8.50
2023-05-10T07:38:37.552Z,5.95
2023-05-10T07:41:07.434Z,6.80
2023-05-10T07:43:35.475Z,7.80
2023-05-10T07:46:04.005Z,7.32
2023-05-10T07:48:32.693Z,9.57
2023-05-10T07:51:01.542Z,7.90
2023-05-10T07:53:29.594Z,5.57
2023-05-10T07:56:00.960Z,7.85
2023-05-10T07:58:30.149Z,7.85
2023-05-10T08:00:59.763Z,8.48
2023-05-10T08:03:27.823Z,7.82
2023-05-10T08:05:56.298Z,8.77
2023-05-10T08:08:25.425Z,6.65
2023-05-10T08:10:53.667Z,9.48
2023-05-10T08:13:22.488Z,7.38
2023-05-10T08:15:54.386Z,10.52
2023-05-10T08:18:26.384Z,10.18
2023-05-10T08:20:54.747Z,9.73
2023-05-10T08:23:22.552Z,7.95
2023-05-10T08:25:50.837Z,14.68
2023-05-10T08:28:19.703Z,8.30
2023-05-10T08:30:47.952Z,7.57
2023-05-10T08:33:15.949Z,10.10
2023-05-10T08:35:44.307Z,9.60
2023-05-10T08:38:12.224Z,11.10
2023-05-10T08:40:43.670Z,8.13
2023-05-10T08:43:13.987Z,9.57
2023-05-10T08:45:46.667Z,14.88
2023-05-10T08:48:17.600Z,11.75
2023-05-10T08:50:48.048Z,9.55
2023-05-10T08:53:18.022Z,12.35
2023-05-10T08:55:48.451Z,9.60
2023-05-10T08:58:16.671Z,10.35
2023-05-10T09:00:44.993Z,8.40
2023-05-10T09:03:14.133Z,12.18
2023-05-10T09:05:43.565Z,8.18
2023-05-10T09:08:14.281Z,8.30
2023-05-10T09:10:44.624Z,8.02
2023-05-10T09:13:14.926Z,7.68
2023-05-10T09:15:45.620Z,9.05
2023-05-10T09:18:14.791Z,9.13
2023-05-10T09:20:44.127Z,6.55
2023-05-10T09:23:12.081Z,7.10
2023-05-10T09:25:43.144Z,7.20
2023-05-10T09:28:12.315Z,16.45
2023-05-10T09:30:44.289Z,7.20
2023-05-10T09:33:12.888Z,7.53
2023-05-10T09:35:41.528Z,10.75
2023-05-10T09:38:09.682Z,12.40
2023-05-10T09:40:38.511Z,6.93
2023-05-10T09:43:12.164Z,9.90
2023-05-10T09:45:44.577Z,9.60
2023-05-10T09:48:14.249Z,6.82
2023-05-10T09:50:43.442Z,11.30
2023-05-10T09:53:18.926Z,8.43
2023-05-10T09:55:50.440Z,9.73
2023-05-10T09:58:18.585Z,7.32
2023-05-10T10:00:53.448Z,8.13
2023-05-10T10:03:22.588Z,6.60
2023-05-10T10:05:50.984Z,10.15
2023-05-10T10:08:19.149Z,9.52
2023-05-10T10:10:48.385Z,15.55
2023-05-10T10:13:17.612Z,10.13
2023-05-10T10:15:52.425Z,11.98
2023-05-10T10:18:24.836Z,6.75
2023-05-10T10:20:55.503Z,12.63
2023-05-10T10:23:23.945Z,8.32
2023-05-10T10:25:57.779Z,7.68
2023-05-10T10:28:53.245Z,8.45
2023-05-10T10:31:52.025Z,9.60
2023-05-10T10:34:31.362Z,6.85
2023-05-10T10:37:06.110Z,6.75
2023-05-10T10:39:37.924Z,7.85
2023-05-10T10:42:08.106Z,6.07
2023-05-10T10:44:40.102Z,7.93
2023-05-10T10:47:24.548Z,9.07
2023-05-10T10:50:03.572Z,8.02
2023-05-10T10:52:36.691Z,7.70
2023-05-10T10:55:24.468Z,6.88
2023-05-10T10:58:02.311Z,6.38
2023-05-10T11:00:32.353Z,6.38
2023-05-10T11:03:10.053Z,7.22
2023-05-10T11:05:41.669Z,5.85
2023-05-10T11:08:18.148Z,7.80
2023-05-10T11:10:53.385Z,7.32
2023-05-10T11:13:48.554Z,7.22
2023-05-10T11:16:23.221Z,9.90
2023-05-10T11:19:08.247Z,8.93
2023-05-10T11:21:53.126Z,7.35
2023-05-10T11:24:24.393Z,6.28
2023-05-10T11:26:53.218Z,5.68
2023-05-10T11:29:21.770Z,6.20
2023-05-10T11:31:50.853Z,5.57
2023-05-10T11:34:28.116Z,8.77
2023-05-10T11:36:56.905Z,9.10
2023-05-10T11:39:30.126Z,5.65
2023-05-10T11:41:59.089Z,6.75
2023-05-10T11:44:32.757Z,7.10
2023-05-10T11:47:02.145Z,5.75
2023-05-10T11:49:31.087Z,11.15
2023-05-10T11:52:09.797Z,7.32
2023-05-10T11:54:38.097Z,10.48
2023-05-10T11:57:06.346Z,6.50
2023-05-10T11:59:34.623Z,6.88
2023-05-10T12:02:02.691Z,5.53
2023-05-10T12:04:31.616Z,5.75
2023-05-10T12:07:00.139Z,6.53
2023-05-10T12:09:42.512Z,6.72
2023-05-10T12:12:16.986Z,7.20
2023-05-10T12:14:45.286Z,8.90
2023-05-10T12:17:14.496Z,4.93
2023-05-10T12:19:42.712Z,7.10
2023-05-10T12:22:10.827Z,7.90
2023-05-10T12:24:42.014Z,5.78
2023-05-10T12:27:10.139Z,6.30
2023-05-10T12:29:45.735Z,6.18
2023-05-10T12:32:13.756Z,4.88
2023-05-10T12:34:42.508Z,8.50
2023-05-10T12:37:10.351Z,4.45
2023-05-10T12:39:44.572Z,7.43
2023-05-10T12:42:13.082Z,5.40
2023-05-10T12:44:41.308Z,7.85
2023-05-10T12:47:09.195Z,7.43
2023-05-10T12:49:37.387Z,5.90
2023-05-10T12:52:05.213Z,7.70
2023-05-10T12:54:33.557Z,9.88
2023-05-10T12:57:01.459Z,9.70
2023-05-10T12:59:29.612Z,7.03
2023-05-10T13:01:58.794Z,9.77
2023-05-10T13:04:27.063Z,9.48
2023-05-10T13:06:57.329Z,6.07
2023-05-10T13:09:26.448Z,7.95
2023-05-10T13:11:56.981Z,6.25
2023-05-10T13:14:26.163Z,4.85
2023-05-10T13:16:55.011Z,7.45
2023-05-10T13:19:24.124Z,6.22
2023-05-10T13:21:52.067Z,9.77
2023-05-10T13:24:20.419Z,8.23
2023-05-10T13:26:48.233Z,9.75
2023-05-10T13:29:19.266Z,4.68
2023-05-10T13:31:47.213Z,6.95
2023-05-10T13:34:15.465Z,6.32
2023-05-10T13:36:43.317Z,6.28
2023-05-10T13:39:12.066Z,10.10
2023-05-10T13:41:40.196Z,6.72
2023-05-10T13:44:08.683Z,8.63
2023-05-10T13:46:36.665Z,7.00
2023-05-10T13:49:05.033Z,6.28
2023-05-10T13:51:33.005Z,7.47
2023-05-10T13:54:01.267Z,7.40
2023-05-10T13:56:29.437Z,8.73
2023-05-10T13:58:58.516Z,7.40
2023-05-10T14:01:26.290Z,8.00
2023-05-10T14:03:55.868Z,7.32
2023-05-10T14:06:24.174Z,11.35
2023-05-10T14:08:52.286Z,13.70
2023-05-10T14:11:20.046Z,7.53
2023-05-10T14:13:48.385Z,9.55
2023-05-10T14:16:18.032Z,7.88
2023-05-10T14:18:46.246Z,9.52
2023-05-10T14:21:14.280Z,7.20
2023-05-10T14:23:42.673Z,11.23
2023-05-10T14:26:10.545Z,6.35
2023-05-10T14:28:39.105Z,9.60
2023-05-10T14:31:07.387Z,6.65
2023-05-10T14:33:35.568Z,9.48
2023-05-10T14:36:05.317Z,7.10
2023-05-10T14:38:34.716Z,10.95
2023-05-10T14:41:02.587Z,6.13
2023-05-10T14:43:31.740Z,8.38
2023-05-10T14:45:59.733Z,8.88
2023-05-10T14:48:28.120Z,8.20
2023-05-10T14:50:56.125Z,5.72
2023-05-10T14:53:25.081Z,7.90
2023-05-10T14:55:54.028Z,8.57
2023-05-10T14:58:22.669Z,11.95
2023-05-10T15:00:50.658Z,9.90
2023-05-10T15:03:19.415Z,8.25
2023-05-10T15:05:47.943Z,8.98
2023-05-10T15:08:17.604Z,15.20
2023-05-10T15:10:45.368Z,9.60
2023-05-10T15:13:13.656Z,8.45
2023-05-10T15:15:41.497Z,6.60
2023-05-10T15:18:13.128Z,16.15
2023-05-10T15:20:42.072Z,8.00
2023-05-10T15:23:09.888Z,5.95
2023-05-10T15:25:39.301Z,8.90
2023-05-10T15:28:07.359Z,6.70
2023-05-10T15:30:35.483Z,7.53
2023-05-10T15:33:05.043Z,7.85
2023-05-10T15:35:34.764Z,4.97
2023-05-10T15:38:03.205Z,6.97
2023-05-10T15:40:31.406Z,9.68
2023-05-10T15:42:59.239Z,5.60
2023-05-10T15:45:28.439Z,9.60
2023-05-10T15:47:56.503Z,10.70
2023-05-10T15:50:24.743Z,10.65
2023-05-10T15:52:52.781Z,8.98
2023-05-10T15:55:21.090Z,14.40
2023-05-10T15:57:49.295Z,14.95
2023-05-10T16:00:18.134Z,11.13
2023-05-10T16:02:46.090Z,14.65
2023-05-10T16:05:16.170Z,8.55
2023-05-10T16:07:44.426Z,10.07
2023-05-10T16:10:14.896Z,14.38
2023-05-10T16:12:43.383Z,10.85
2023-05-10T16:15:11.917Z,8.30
2023-05-10T16:17:39.922Z,13.80
2023-05-10T16:20:08.730Z,11.88
2023-05-10T16:22:37.736Z,6.40
2023-05-10T16:25:08.185Z,8.50
2023-05-10T16:27:36.836Z,7.40
2023-05-10T16:30:06.590Z,9.00
2023-05-10T16:32:35.573Z,9.07
2023-05-10T16:35:03.902Z,9.73
2023-05-10T16:37:32.465Z,14.50
2023-05-10T16:40:01.192Z,10.80
2023-05-10T16:42:31.575Z,13.05
2023-05-10T16:45:07.552Z,8.38
2023-05-10T16:47:40.909Z,12.60
2023-05-10T16:50:10.526Z,12.52
2023-05-10T16:52:38.758Z,10.52
2023-05-10T16:55:07.933Z,7.38
2023-05-10T16:57:35.899Z,7.72
2023-05-10T17:00:12.228Z,8.45
2023-05-10T17:05:14.438Z,12.50
2023-05-10T17:07:44.604Z,12.38
2023-05-10T17:10:13.290Z,10.77
2023-05-10T17:12:41.409Z,10.32
2023-05-10T17:15:10.597Z,9.02
2023-05-10T17:17:38.822Z,9.98
2023-05-10T17:20:07.922Z,11.00
2023-05-10T17:22:38.066Z,11.25
2023-05-10T17:25:07.169Z,7.60
2023-05-10T17:27:35.039Z,9.65
2023-05-10T17:30:03.574Z,11.85
2023-05-10T17:32:33.082Z,10.32
2023-05-10T17:35:01.376Z,10.57
2023-05-10T17:37:33.346Z,8.13
2023-05-10T17:40:04.298Z,9.00
2023-05-10T17:42:35.053Z,7.80
2023-05-10T17:45:04.076Z,8.18
2023-05-10T17:47:33.175Z,7.18
2023-05-10T17:50:02.117Z,10.70
2023-05-10T17:52:33.649Z,11.07
2023-05-10T17:55:02.983Z,7.40
2023-05-10T17:57:32.127Z,7.97
2023-05-10T18:00:01.276Z,8.90
2023-05-10T18:02:37.033Z,10.68
2023-05-10T18:05:07.424Z,7.80
2023-05-10T18:07:36.941Z,7.97
2023-05-10T18:10:05.660Z,8.43
2023-05-10T18:12:33.694Z,11.90
2023-05-10T18:15:04.329Z,7.82
2023-05-10T18:17:35.269Z,6.43
2023-05-10T18:20:06.463Z,6.50
2023-05-10T18:22:35.010Z,7.63
2023-05-10T18:25:03.496Z,7.25
2023-05-10T18:27:33.490Z,5.43
2023-05-10T18:30:01.896Z,5.00
2023-05-10T18:32:33.770Z,7.22
2023-05-10T18:35:02.310Z,9.10
2023-05-10T18:37:34.707Z,8.48
2023-05-10T18:40:05.236Z,5.43
2023-05-10T18:42:33.564Z,8.93
2023-05-10T18:45:06.122Z,6.82
2023-05-10T18:47:35.084Z,8.60
2023-05-10T18:50:05.397Z,6.75
2023-05-10T18:52:37.327Z,7.38
2023-05-10T18:55:09.162Z,7.88
2023-05-10T18:57:41.817Z,11.57
2023-05-10T19:00:12.720Z,13.02
2023-05-10T19:02:41.642Z,8.07
2023-05-10T19:05:11.667Z,5.75
2023-05-10T19:07:40.915Z,10.45
2023-05-10T19:10:09.491Z,7.78
2023-05-10T19:12:37.737Z,7.97
2023-05-10T19:15:07.279Z,6.22
2023-05-10T19:17:37.239Z,6.20
2023-05-10T19:20:09.069Z,5.82
2023-05-10T19:22:54.078Z,5.57
2023-05-10T19:25:33.817Z,8.10
2023-05-10T19:28:05.372Z,6.75
2023-05-10T19:30:34.787Z,8.52
2023-05-10T19:33:05.694Z,6.13
2023-05-10T19:35:34.190Z,6.53
2023-05-10T19:38:03.619Z,7.35
2023-05-10T19:40:33.015Z,6.65
2023-05-10T19:43:01.692Z,5.97
2023-05-10T19:45:31.690Z,5.65
2023-05-10T19:47:59.644Z,5.03
2023-05-10T19:50:27.846Z,6.28
2023-05-10T19:52:58.483Z,5.55
2023-05-10T19:55:29.937Z,7.35
2023-05-10T19:58:00.859Z,4.55
2023-05-10T20:00:29.363Z,4.50
2023-05-10T20:02:57.966Z,6.53
2023-05-10T20:05:26.310Z,4.18
2023-05-10T20:07:54.882Z,8.13
2023-05-10T20:10:27.244Z,6.28
2023-05-10T20:12:55.276Z,6.20
2023-05-10T20:15:23.943Z,7.70
2023-05-10T20:17:53.587Z,6.40
2023-05-10T20:20:23.890Z,4.07
2023-05-10T20:22:51.953Z,4.45
2023-05-10T20:25:20.319Z,6.43
2023-05-10T20:27:51.046Z,4.65
2023-05-10T20:30:20.080Z,5.97
2023-05-10T20:32:49.826Z,3.83
2023-05-10T20:35:18.169Z,4.38
2023-05-10T20:37:48.758Z,2.97
2023-05-10T20:40:18.074Z,4.82
2023-05-10T20:42:48.034Z,3.08
2023-05-10T20:45:16.469Z,2.83
2023-05-10T20:47:44.849Z,2.63
2023-05-10T20:50:13.237Z,2.97
2023-05-10T20:52:41.213Z,3.55
2023-05-10T20:55:10.083Z,3.33
2023-05-10T20:57:37.984Z,2.38
2023-05-10T21:00:07.155Z,4.13
2023-05-10T21:02:35.682Z,2.30
2023-05-10T21:05:05.429Z,2.85
2023-05-10T21:07:33.468Z,2.78
2023-05-10T21:10:02.218Z,2.38
2023-05-10T21:12:32.470Z,2.92
2023-05-10T21:15:03.277Z,2.03
2023-05-10T21:17:32.753Z,2.72
2023-05-10T21:20:01.449Z,1.52
2023-05-10T21:22:30.120Z,2.47
2023-05-10T21:24:58.555Z,1.85
2023-05-10T21:27:27.554Z,2.53
2023-05-10T21:30:00.293Z,2.28
2023-05-10T21:32:28.291Z,2.08
2023-05-10T21:34:57.045Z,2.53
2023-05-10T21:37:25.017Z,3.75
2023-05-10T21:39:53.280Z,2.53
2023-05-10T21:42:23.713Z,2.60
2023-05-10T21:44:54.356Z,1.88
2023-05-10T21:47:22.709Z,2.75
2023-05-10T21:49:51.322Z,3.85
2023-05-10T21:52:19.617Z,1.85
2023-05-10T21:54:48.890Z,2.70
2023-05-10T21:57:17.669Z,1.77
2023-05-10T21:59:48.824Z,2.20
2023-05-10T22:02:17.941Z,2.65
2023-05-10T22:04:46.249Z,4.25
2023-05-10T22:07:15.598Z,2.00
2023-05-10T22:09:44.504Z,1.75
2023-05-10T22:12:13.158Z,1.65
2023-05-10T22:14:41.811Z,1.67
2023-05-10T22:17:09.904Z,3.50
2023-05-10T22:19:38.409Z,2.50
2023-05-10T22:22:06.566Z,1.92
2023-05-10T22:24:35.423Z,3.03
2023-05-10T22:27:05.071Z,1.80
2023-05-10T22:29:33.551Z,1.38
2023-05-10T22:32:05.851Z,3.05
2023-05-10T22:34:35.746Z,2.28
2023-05-10T22:37:04.270Z,3.78
2023-05-10T22:39:32.626Z,2.38
2023-05-10T22:42:00.948Z,3.30
2023-05-10T22:44:29.208Z,3.65
2023-05-10T22:46:57.365Z,2.58
2023-05-10T22:49:26.031Z,2.13
2023-05-10T22:51:54.325Z,1.50
2023-05-10T22:54:22.656Z,8.75
2023-05-10T22:56:51.424Z,5.30
2023-05-10T22:59:20.955Z,2.40
2023-05-10T23:01:49.297Z,1.90
2023-05-10T23:04:18.551Z,1.48
2023-05-10T23:06:47.153Z,1.83
2023-05-10T23:09:15.724Z,2.05
2023-05-10T23:16:21.341Z,1.55
2023-05-10T23:18:52.562Z,1.40
2023-05-10T23:21:32.225Z,3.05
2023-05-10T23:24:13.040Z,1.52
2023-05-10T23:26:47.227Z,1.70
2023-05-10T23:29:20.265Z,1.38
2023-05-10T23:31:52.445Z,3.13
2023-05-10T23:34:22.130Z,1.42
2023-05-10T23:36:52.404Z,1.40
2023-05-10T23:39:21.382Z,1.55
2023-05-10T23:42:10.262Z,1.40
2023-05-10T23:44:39.104Z,1.25
2023-05-10T23:47:28.733Z,4.43
2023-05-10T23:49:58.866Z,1.60
2023-05-10T23:52:35.512Z,0.80
2023-05-10T23:55:09.167Z,1.52
2023-05-10T23:57:45.053Z,1.60
